NCAR-RAP Real-Time Weather Data

Output produced by METARs form (26 May 2022  07:19 UTC)
found at http://weather.rap.ucar.edu/surface/
 
KMKG 260655Z AUTO 18014G23KT 10SM BKN020 OVC025 22/19 A2979 RMK AO2 RAB40E50 SLP084 P0000 T02170189
KMKG 260555Z AUTO 17011G18KT 10SM BKN021 OVC027 22/19 A2980 RMK AO2 SLP089 60009 T02170189 10222 20200 56013
KMKG 260455Z AUTO 14007KT 8SM BKN028 BKN075 OVC110 21/19 A2981 RMK AO2 SLP094 T02060189 402170128
KMKG 260355Z AUTO 12008KT 5SM BR SCT055 BKN110 20/18 A2982 RMK AO2 RAE02 CIG 050 RWY 14 SLP096 P0000 T02000183
KMKG 260255Z 12008KT 5SM -RA BR SCT100 OVC110 20/18 A2984 RMK AO2 TSE16 SLP103 LAST P0006 60009 T02000183 55007
KMKG 260222Z 13011KT 5SM -RA BR SCT032 BKN048 OVC100 21/18 A2984 RMK AO2 LTG DSNT W TSE16 P0002 T02060183
KMKG 260155Z 12012G20KT 5SM -TSRA FEW035CB SCT090 OVC130 21/18 A2983 RMK AO2 LTG DSNT SW RAB43 TSB53 SLP099 OCNL LTGIC SW TS SW MOV NE P0003 T02060178
KMKG 260055Z 11009KT 10SM FEW055 OVC250 21/18 A2984 RMK AO2 SLP102 T02110183
KMKG 260033Z 11011KT 10SM FEW011 BKN060 OVC250 21/18 A2985 RMK AO2 T02110183
KMKG 260005Z 11013KT 10SM BKN013 BKN120 OVC250 22/18 A2985 RMK AO2 LTG DSNT E T02170183
KMKG 252355Z 10011KT 10SM SCT014 SCT120 22/18 A2986 RMK AO2 SLP110 60001 T02170183 10217 20178 56014
KMKG 252255Z 10006KT 10SM FEW015 OVC080 21/18 A2987 RMK AO2 RAB32E51 SLP115 P0000 T02110178
KMKG 252222Z 11009KT 10SM OVC015 22/18 A2989 RMK AO2 T02170178
KMKG 252155Z 13010KT 10SM OVC013 22/18 A2989 RMK AO2 SLP119 T02170178
KMKG 252055Z 11013KT 10SM OVC012 21/17 A2990 RMK AO2 SLP125 60001 T02060172 58024
KMKG 251955Z 11012KT 10SM OVC011 20/17 A2993 RMK AO2 RAB28E39 SLP134 P0001 T02000167
KMKG 251916Z 12012KT 10SM OVC010 19/16 A2995 RMK AO2 T01940161
KMKG 251855Z 12016G21KT 10SM OVC009 19/16 A2995 RMK AO2 SLP143 T01890161
KMKG 251755Z 12013KT 8SM OVC008 18/16 A2998 RMK AO2 RAE34 SLP150 P0001 60003 T01780156 10178 20139 58016